sensor_id;sensor_type;location;lat;lon;timestamp;pressure;altitude;pressure_sealevel;temperature;humidity
82293;BME280;71892;14.836;105.234;2023-12-20T00:00:17;99856.50;;;20.65;nan
82293;BME280;71892;14.836;105.234;2023-12-20T00:02:43;99854.47;;;20.74;nan
82293;BME280;71892;14.836;105.234;2023-12-20T00:05:13;99862.41;;;20.80;nan
82293;BME280;71892;14.836;105.234;2023-12-20T00:07:40;99866.69;;;20.89;nan
82293;BME280;71892;14.836;105.234;2023-12-20T00:10:07;99867.25;;;21.02;nan
82293;BME280;71892;14.836;105.234;2023-12-20T00:12:33;99864.28;;;21.12;nan
82293;BME280;71892;14.836;105.234;2023-12-20T00:14:59;99864.06;;;21.54;nan
82293;BME280;71892;14.836;105.234;2023-12-20T00:17:26;99870.44;;;22.13;nan
82293;BME280;71892;14.836;105.234;2023-12-20T00:19:52;99870.63;;;22.64;nan
82293;BME280;71892;14.836;105.234;2023-12-20T00:22:18;99875.19;;;22.90;nan
82293;BME280;71892;14.836;105.234;2023-12-20T00:24:45;99886.81;;;23.20;nan
82293;BME280;71892;14.836;105.234;2023-12-20T00:27:11;99886.84;;;23.46;nan
82293;BME280;71892;14.836;105.234;2023-12-20T00:29:38;99891.38;;;23.70;nan
82293;BME280;71892;14.836;105.234;2023-12-20T00:32:04;99884.63;;;23.57;nan
82293;BME280;71892;14.836;105.234;2023-12-20T00:34:30;99892.81;;;23.80;nan
82293;BME280;71892;14.836;105.234;2023-12-20T00:36:57;99901.59;;;23.87;nan
82293;BME280;71892;14.836;105.234;2023-12-20T00:39:23;99900.03;;;23.81;nan
82293;BME280;71892;14.836;105.234;2023-12-20T00:41:50;99912.56;;;24.09;nan
82293;BME280;71892;14.836;105.234;2023-12-20T00:44:16;99916.84;;;24.39;nan
82293;BME280;71892;14.836;105.234;2023-12-20T00:46:43;99928.28;;;24.47;nan
82293;BME280;71892;14.836;105.234;2023-12-20T00:49:09;99925.34;;;24.75;nan
82293;BME280;71892;14.836;105.234;2023-12-20T00:51:35;99930.06;;;24.93;nan
82293;BME280;71892;14.836;105.234;2023-12-20T00:54:02;99930.66;;;25.01;nan
82293;BME280;71892;14.836;105.234;2023-12-20T00:56:28;99937.94;;;24.78;nan
82293;BME280;71892;14.836;105.234;2023-12-20T00:58:54;99944.81;;;24.64;nan
82293;BME280;71892;14.836;105.234;2023-12-20T01:03:47;99947.59;;;24.63;nan
82293;BME280;71892;14.836;105.234;2023-12-20T01:06:14;99949.66;;;24.56;nan
82293;BME280;71892;14.836;105.234;2023-12-20T01:08:41;99964.16;;;24.57;nan
82293;BME280;71892;14.836;105.234;2023-12-20T01:11:07;99968.00;;;24.51;nan
82293;BME280;71892;14.836;105.234;2023-12-20T01:13:34;99965.84;;;24.59;nan
82293;BME280;71892;14.836;105.234;2023-12-20T01:16:01;99967.06;;;24.74;nan
82293;BME280;71892;14.836;105.234;2023-12-20T01:18:27;99958.50;;;24.85;nan
82293;BME280;71892;14.836;105.234;2023-12-20T01:20:54;99962.47;;;24.99;nan
82293;BME280;71892;14.836;105.234;2023-12-20T01:23:20;99953.41;;;25.21;nan
82293;BME280;71892;14.836;105.234;2023-12-20T01:25:47;99956.13;;;25.21;nan
82293;BME280;71892;14.836;105.234;2023-12-20T01:28:14;99955.09;;;25.45;nan
82293;BME280;71892;14.836;105.234;2023-12-20T01:30:40;99949.19;;;26.36;nan
82293;BME280;71892;14.836;105.234;2023-12-20T01:33:06;99949.06;;;26.96;nan
82293;BME280;71892;14.836;105.234;2023-12-20T01:35:39;99956.50;;;27.11;nan
82293;BME280;71892;14.836;105.234;2023-12-20T01:38:05;99950.22;;;27.45;nan
82293;BME280;71892;14.836;105.234;2023-12-20T01:40:32;99944.34;;;27.70;nan
82293;BME280;71892;14.836;105.234;2023-12-20T01:43:07;99960.38;;;27.77;nan
82293;BME280;71892;14.836;105.234;2023-12-20T01:45:34;99951.28;;;27.77;nan
82293;BME280;71892;14.836;105.234;2023-12-20T01:48:01;99943.06;;;27.94;nan
82293;BME280;71892;14.836;105.234;2023-12-20T01:50:28;99943.50;;;27.69;nan
82293;BME280;71892;14.836;105.234;2023-12-20T01:52:58;99938.09;;;27.85;nan
82293;BME280;71892;14.836;105.234;2023-12-20T01:55:27;99939.19;;;28.48;nan
82293;BME280;71892;14.836;105.234;2023-12-20T01:57:56;99938.00;;;29.01;nan
82293;BME280;71892;14.836;105.234;2023-12-20T02:00:24;99939.06;;;29.14;nan
82293;BME280;71892;14.836;105.234;2023-12-20T02:02:54;99934.63;;;29.27;nan
82293;BME280;71892;14.836;105.234;2023-12-20T02:05:24;99936.69;;;28.76;nan
82293;BME280;71892;14.836;105.234;2023-12-20T02:07:51;99944.13;;;28.74;nan
82293;BME280;71892;14.836;105.234;2023-12-20T02:10:18;99937.47;;;29.10;nan
82293;BME280;71892;14.836;105.234;2023-12-20T02:12:53;99931.63;;;29.47;nan
82293;BME280;71892;14.836;105.234;2023-12-20T02:15:20;99930.81;;;29.45;nan
82293;BME280;71892;14.836;105.234;2023-12-20T02:17:47;99927.16;;;29.60;nan
82293;BME280;71892;14.836;105.234;2023-12-20T02:20:14;99922.28;;;29.35;nan
82293;BME280;71892;14.836;105.234;2023-12-20T02:22:40;99928.91;;;29.31;nan
82293;BME280;71892;14.836;105.234;2023-12-20T02:25:07;99927.19;;;29.45;nan
82293;BME280;71892;14.836;105.234;2023-12-20T02:27:34;99926.31;;;29.44;nan
82293;BME280;71892;14.836;105.234;2023-12-20T02:30:01;99928.34;;;29.70;nan
82293;BME280;71892;14.836;105.234;2023-12-20T02:32:29;99928.13;;;29.89;nan
82293;BME280;71892;14.836;105.234;2023-12-20T02:34:55;99901.75;;;30.86;nan
82293;BME280;71892;14.836;105.234;2023-12-20T02:37:22;99927.19;;;30.75;nan
82293;BME280;71892;14.836;105.234;2023-12-20T02:39:48;99917.19;;;30.60;nan
82293;BME280;71892;14.836;105.234;2023-12-20T02:42:15;99913.84;;;30.27;nan
82293;BME280;71892;14.836;105.234;2023-12-20T02:44:41;99903.97;;;30.67;nan
82293;BME280;71892;14.836;105.234;2023-12-20T02:47:07;99910.78;;;30.88;nan
82293;BME280;71892;14.836;105.234;2023-12-20T02:49:34;99906.63;;;30.68;nan
82293;BME280;71892;14.836;105.234;2023-12-20T02:52:00;99907.31;;;30.57;nan
82293;BME280;71892;14.836;105.234;2023-12-20T02:54:26;99900.94;;;30.14;nan
82293;BME280;71892;14.836;105.234;2023-12-20T02:56:53;99892.22;;;30.08;nan
82293;BME280;71892;14.836;105.234;2023-12-20T02:59:19;99893.19;;;30.07;nan
82293;BME280;71892;14.836;105.234;2023-12-20T03:01:46;99893.97;;;30.23;nan
82293;BME280;71892;14.836;105.234;2023-12-20T03:04:12;99883.22;;;30.20;nan
82293;BME280;71892;14.836;105.234;2023-12-20T03:06:39;99872.41;;;30.31;nan
82293;BME280;71892;14.836;105.234;2023-12-20T03:11:31;99882.31;;;30.34;nan
82293;BME280;71892;14.836;105.234;2023-12-20T03:13:57;99883.50;;;30.01;nan
82293;BME280;71892;14.836;105.234;2023-12-20T03:16:24;99879.28;;;29.96;nan
82293;BME280;71892;14.836;105.234;2023-12-20T03:18:50;99877.00;;;30.31;nan
82293;BME280;71892;14.836;105.234;2023-12-20T03:21:16;99875.38;;;30.14;nan
82293;BME280;71892;14.836;105.234;2023-12-20T03:23:43;99874.41;;;30.15;nan
82293;BME280;71892;14.836;105.234;2023-12-20T03:26:10;99860.47;;;30.04;nan
82293;BME280;71892;14.836;105.234;2023-12-20T03:28:36;99867.72;;;30.33;nan
82293;BME280;71892;14.836;105.234;2023-12-20T03:31:03;99864.59;;;30.39;nan
82293;BME280;71892;14.836;105.234;2023-12-20T03:33:29;99857.63;;;30.48;nan
82293;BME280;71892;14.836;105.234;2023-12-20T03:35:56;99861.06;;;30.51;nan
82293;BME280;71892;14.836;105.234;2023-12-20T03:38:22;99864.78;;;30.22;nan
82293;BME280;71892;14.836;105.234;2023-12-20T03:40:51;99862.59;;;30.41;nan
82293;BME280;71892;14.836;105.234;2023-12-20T03:43:18;99858.13;;;30.54;nan
82293;BME280;71892;14.836;105.234;2023-12-20T03:45:44;99862.84;;;30.10;nan
82293;BME280;71892;14.836;105.234;2023-12-20T03:48:11;99845.84;;;30.32;nan
82293;BME280;71892;14.836;105.234;2023-12-20T03:50:37;99849.03;;;30.26;nan
82293;BME280;71892;14.836;105.234;2023-12-20T03:53:04;99843.69;;;30.37;nan
82293;BME280;71892;14.836;105.234;2023-12-20T03:55:30;99836.50;;;30.77;nan
82293;BME280;71892;14.836;105.234;2023-12-20T03:58:03;99835.69;;;30.75;nan
82293;BME280;71892;14.836;105.234;2023-12-20T04:00:30;99822.97;;;30.74;nan
82293;BME280;71892;14.836;105.234;2023-12-20T04:02:56;99822.38;;;30.95;nan
82293;BME280;71892;14.836;105.234;2023-12-20T04:05:22;99829.63;;;30.70;nan
82293;BME280;71892;14.836;105.234;2023-12-20T04:08:01;99822.00;;;30.05;nan
82293;BME280;71892;14.836;105.234;2023-12-20T04:10:27;99819.19;;;30.62;nan
82293;BME280;71892;14.836;105.234;2023-12-20T04:12:54;99804.56;;;30.61;nan
82293;BME280;71892;14.836;105.234;2023-12-20T04:15:20;99802.66;;;30.49;nan
82293;BME280;71892;14.836;105.234;2023-12-20T04:17:47;99792.97;;;30.71;nan
82293;BME280;71892;14.836;105.234;2023-12-20T04:20:13;99793.06;;;30.96;nan
82293;BME280;71892;14.836;105.234;2023-12-20T04:22:40;99788.28;;;30.85;nan
82293;BME280;71892;14.836;105.234;2023-12-20T04:25:06;99786.28;;;30.34;nan
82293;BME280;71892;14.836;105.234;2023-12-20T04:27:33;99775.69;;;30.83;nan
82293;BME280;71892;14.836;105.234;2023-12-20T04:29:59;99769.09;;;31.12;nan
82293;BME280;71892;14.836;105.234;2023-12-20T04:32:25;99762.75;;;30.97;nan
82293;BME280;71892;14.836;105.234;2023-12-20T04:34:52;99769.97;;;31.13;nan
82293;BME280;71892;14.836;105.234;2023-12-20T04:37:18;99764.06;;;31.44;nan
82293;BME280;71892;14.836;105.234;2023-12-20T04:39:45;99751.78;;;30.71;nan
82293;BME280;71892;14.836;105.234;2023-12-20T04:42:11;99762.84;;;30.96;nan
82293;BME280;71892;14.836;105.234;2023-12-20T04:44:37;99739.13;;;31.60;nan
82293;BME280;71892;14.836;105.234;2023-12-20T04:47:04;99751.50;;;31.52;nan
82293;BME280;71892;14.836;105.234;2023-12-20T04:49:30;99738.19;;;31.08;nan
82293;BME280;71892;14.836;105.234;2023-12-20T04:51:57;99735.03;;;31.52;nan
82293;BME280;71892;14.836;105.234;2023-12-20T04:54:23;99734.38;;;31.49;nan
82293;BME280;71892;14.836;105.234;2023-12-20T04:56:55;99727.44;;;31.31;nan
82293;BME280;71892;14.836;105.234;2023-12-20T04:59:28;99725.91;;;31.27;nan
82293;BME280;71892;14.836;105.234;2023-12-20T05:01:54;99711.31;;;31.52;nan
82293;BME280;71892;14.836;105.234;2023-12-20T05:04:21;99714.47;;;31.83;nan
82293;BME280;71892;14.836;105.234;2023-12-20T05:06:47;99695.06;;;31.98;nan
82293;BME280;71892;14.836;105.234;2023-12-20T05:09:15;99706.59;;;32.15;nan
82293;BME280;71892;14.836;105.234;2023-12-20T05:11:42;99705.25;;;32.21;nan
82293;BME280;71892;14.836;105.234;2023-12-20T05:14:08;99712.84;;;31.30;nan
82293;BME280;71892;14.836;105.234;2023-12-20T05:16:34;99706.44;;;31.42;nan
82293;BME280;71892;14.836;105.234;2023-12-20T05:19:01;99693.13;;;31.49;nan
82293;BME280;71892;14.836;105.234;2023-12-20T05:21:32;99690.84;;;31.56;nan
82293;BME280;71892;14.836;105.234;2023-12-20T05:23:59;99677.75;;;32.08;nan
82293;BME280;71892;14.836;105.234;2023-12-20T05:26:26;99677.13;;;32.05;nan
82293;BME280;71892;14.836;105.234;2023-12-20T05:28:52;99668.66;;;32.31;nan
82293;BME280;71892;14.836;105.234;2023-12-20T05:31:19;99662.81;;;32.36;nan
82293;BME280;71892;14.836;105.234;2023-12-20T05:33:45;99647.28;;;32.35;nan
82293;BME280;71892;14.836;105.234;2023-12-20T05:36:11;99631.34;;;31.67;nan
82293;BME280;71892;14.836;105.234;2023-12-20T05:38:39;99630.34;;;32.05;nan
82293;BME280;71892;14.836;105.234;2023-12-20T05:41:06;99630.06;;;32.44;nan
82293;BME280;71892;14.836;105.234;2023-12-20T05:43:32;99650.63;;;32.27;nan
82293;BME280;71892;14.836;105.234;2023-12-20T05:45:58;99636.19;;;32.00;nan
82293;BME280;71892;14.836;105.234;2023-12-20T05:48:25;99634.94;;;32.17;nan
82293;BME280;71892;14.836;105.234;2023-12-20T05:50:51;99624.94;;;32.16;nan
82293;BME280;71892;14.836;105.234;2023-12-20T05:53:17;99618.53;;;32.15;nan
82293;BME280;71892;14.836;105.234;2023-12-20T05:55:44;99627.69;;;32.16;nan
82293;BME280;71892;14.836;105.234;2023-12-20T05:58:10;99615.41;;;31.96;nan
82293;BME280;71892;14.836;105.234;2023-12-20T06:00:37;99619.03;;;32.33;nan
82293;BME280;71892;14.836;105.234;2023-12-20T06:03:03;99614.41;;;31.97;nan
82293;BME280;71892;14.836;105.234;2023-12-20T06:05:31;99605.41;;;31.95;nan
82293;BME280;71892;14.836;105.234;2023-12-20T06:10:27;99601.63;;;32.09;nan
82293;BME280;71892;14.836;105.234;2023-12-20T06:12:53;99584.69;;;32.02;nan
82293;BME280;71892;14.836;105.234;2023-12-20T06:15:20;99573.63;;;31.91;nan
82293;BME280;71892;14.836;105.234;2023-12-20T06:17:46;99574.78;;;32.12;nan
82293;BME280;71892;14.836;105.234;2023-12-20T06:20:12;99570.16;;;32.13;nan
82293;BME280;71892;14.836;105.234;2023-12-20T06:22:39;99566.22;;;32.39;nan
82293;BME280;71892;14.836;105.234;2023-12-20T06:25:05;99553.44;;;32.62;nan
82293;BME280;71892;14.836;105.234;2023-12-20T06:27:32;99560.50;;;32.42;nan
82293;BME280;71892;14.836;105.234;2023-12-20T06:29:59;99549.97;;;32.36;nan
82293;BME280;71892;14.836;105.234;2023-12-20T06:32:25;99534.38;;;32.59;nan
82293;BME280;71892;14.836;105.234;2023-12-20T06:34:52;99537.06;;;32.71;nan
82293;BME280;71892;14.836;105.234;2023-12-20T06:37:18;99526.78;;;32.62;nan
82293;BME280;71892;14.836;105.234;2023-12-20T06:39:44;99540.47;;;32.40;nan
82293;BME280;71892;14.836;105.234;2023-12-20T06:42:11;99525.94;;;32.03;nan
82293;BME280;71892;14.836;105.234;2023-12-20T06:44:37;99530.38;;;31.69;nan
82293;BME280;71892;14.836;105.234;2023-12-20T06:47:04;99523.91;;;31.94;nan
82293;BME280;71892;14.836;105.234;2023-12-20T06:49:31;99518.25;;;31.96;nan
82293;BME280;71892;14.836;105.234;2023-12-20T06:51:57;99505.91;;;32.01;nan
82293;BME280;71892;14.836;105.234;2023-12-20T06:54:23;99513.03;;;32.27;nan
82293;BME280;71892;14.836;105.234;2023-12-20T06:56:50;99504.47;;;32.43;nan
82293;BME280;71892;14.836;105.234;2023-12-20T06:59:16;99498.06;;;32.54;nan
82293;BME280;71892;14.836;105.234;2023-12-20T07:01:46;99495.53;;;32.28;nan
82293;BME280;71892;14.836;105.234;2023-12-20T07:04:13;99499.53;;;32.01;nan
82293;BME280;71892;14.836;105.234;2023-12-20T07:06:39;99495.91;;;32.00;nan
82293;BME280;71892;14.836;105.234;2023-12-20T07:09:06;99494.31;;;32.32;nan
82293;BME280;71892;14.836;105.234;2023-12-20T07:11:32;99490.91;;;32.05;nan
82293;BME280;71892;14.836;105.234;2023-12-20T07:13:58;99485.97;;;32.10;nan
82293;BME280;71892;14.836;105.234;2023-12-20T07:16:25;99494.63;;;31.93;nan
82293;BME280;71892;14.836;105.234;2023-12-20T07:18:51;99472.59;;;31.58;nan
82293;BME280;71892;14.836;105.234;2023-12-20T07:21:18;99473.22;;;31.62;nan
82293;BME280;71892;14.836;105.234;2023-12-20T07:23:44;99481.13;;;31.66;nan
82293;BME280;71892;14.836;105.234;2023-12-20T07:26:11;99484.41;;;31.71;nan
82293;BME280;71892;14.836;105.234;2023-12-20T07:28:37;99479.84;;;31.83;nan
82293;BME280;71892;14.836;105.234;2023-12-20T07:31:03;99389.84;;;31.85;nan
82293;BME280;71892;14.836;105.234;2023-12-20T07:33:30;99463.34;;;31.83;nan
82293;BME280;71892;14.836;105.234;2023-12-20T07:35:56;99459.34;;;31.87;nan
82293;BME280;71892;14.836;105.234;2023-12-20T07:38:23;99465.16;;;31.71;nan
82293;BME280;71892;14.836;105.234;2023-12-20T07:40:49;99463.78;;;31.66;nan
82293;BME280;71892;14.836;105.234;2023-12-20T07:43:15;99466.28;;;31.69;nan
82293;BME280;71892;14.836;105.234;2023-12-20T07:45:42;99460.66;;;31.70;nan
82293;BME280;71892;14.836;105.234;2023-12-20T07:48:08;99451.69;;;31.56;nan
82293;BME280;71892;14.836;105.234;2023-12-20T07:50:34;99452.53;;;31.32;nan
82293;BME280;71892;14.836;105.234;2023-12-20T07:53:01;99455.25;;;31.21;nan
82293;BME280;71892;14.836;105.234;2023-12-20T07:57:56;99463.69;;;31.18;nan
82293;BME280;71892;14.836;105.234;2023-12-20T08:00:22;99453.31;;;30.85;nan
82293;BME280;71892;14.836;105.234;2023-12-20T08:02:48;99444.09;;;30.86;nan
82293;BME280;71892;14.836;105.234;2023-12-20T08:05:15;99446.00;;;30.73;nan
82293;BME280;71892;14.836;105.234;2023-12-20T08:07:41;99454.88;;;30.77;nan
82293;BME280;71892;14.836;105.234;2023-12-20T08:10:08;99448.59;;;30.87;nan
82293;BME280;71892;14.836;105.234;2023-12-20T08:12:34;99457.03;;;30.84;nan
82293;BME280;71892;14.836;105.234;2023-12-20T08:15:01;99457.47;;;30.91;nan
82293;BME280;71892;14.836;105.234;2023-12-20T08:17:28;99454.50;;;30.94;nan
82293;BME280;71892;14.836;105.234;2023-12-20T08:19:55;99455.91;;;30.99;nan
82293;BME280;71892;14.836;105.234;2023-12-20T08:22:22;99458.91;;;30.96;nan
82293;BME280;71892;14.836;105.234;2023-12-20T08:24:48;99441.81;;;30.68;nan
82293;BME280;71892;14.836;105.234;2023-12-20T08:27:14;99440.31;;;30.63;nan
82293;BME280;71892;14.836;105.234;2023-12-20T08:29:44;99446.59;;;30.89;nan
82293;BME280;71892;14.836;105.234;2023-12-20T08:32:11;99443.66;;;30.92;nan
82293;BME280;71892;14.836;105.234;2023-12-20T08:34:37;99452.22;;;30.88;nan
82293;BME280;71892;14.836;105.234;2023-12-20T08:37:04;99456.19;;;30.84;nan
82293;BME280;71892;14.836;105.234;2023-12-20T08:39:30;99452.69;;;30.82;nan
82293;BME280;71892;14.836;105.234;2023-12-20T08:41:59;99445.00;;;30.61;nan
82293;BME280;71892;14.836;105.234;2023-12-20T08:44:25;99454.03;;;30.63;nan
82293;BME280;71892;14.836;105.234;2023-12-20T08:46:52;99458.81;;;30.85;nan
82293;BME280;71892;14.836;105.234;2023-12-20T08:49:18;99455.53;;;30.55;nan
82293;BME280;71892;14.836;105.234;2023-12-20T08:51:45;99457.97;;;30.47;nan
82293;BME280;71892;14.836;105.234;2023-12-20T08:54:11;99453.38;;;30.47;nan
82293;BME280;71892;14.836;105.234;2023-12-20T08:56:45;99451.38;;;30.62;nan
82293;BME280;71892;14.836;105.234;2023-12-20T08:59:12;99459.94;;;30.45;nan
82293;BME280;71892;14.836;105.234;2023-12-20T09:01:38;99464.34;;;30.47;nan
82293;BME280;71892;14.836;105.234;2023-12-20T09:04:04;99475.09;;;30.50;nan
82293;BME280;71892;14.836;105.234;2023-12-20T09:06:32;99475.97;;;30.51;nan
82293;BME280;71892;14.836;105.234;2023-12-20T09:08:58;99482.09;;;30.42;nan
82293;BME280;71892;14.836;105.234;2023-12-20T09:11:25;99484.06;;;30.27;nan
82293;BME280;71892;14.836;105.234;2023-12-20T09:13:51;99493.47;;;30.10;nan
82293;BME280;71892;14.836;105.234;2023-12-20T09:16:17;99497.28;;;29.95;nan
82293;BME280;71892;14.836;105.234;2023-12-20T09:18:44;99494.72;;;29.92;nan
82293;BME280;71892;14.836;105.234;2023-12-20T09:21:10;99501.50;;;29.87;nan
82293;BME280;71892;14.836;105.234;2023-12-20T09:23:36;99507.84;;;29.87;nan
82293;BME280;71892;14.836;105.234;2023-12-20T09:26:03;99514.19;;;29.75;nan
82293;BME280;71892;14.836;105.234;2023-12-20T09:28:29;99508.34;;;29.67;nan
82293;BME280;71892;14.836;105.234;2023-12-20T09:33:22;99511.03;;;29.54;nan
82293;BME280;71892;14.836;105.234;2023-12-20T09:35:48;99512.75;;;29.43;nan
82293;BME280;71892;14.836;105.234;2023-12-20T09:38:14;99517.72;;;29.36;nan
82293;BME280;71892;14.836;105.234;2023-12-20T09:40:43;99523.56;;;29.30;nan
82293;BME280;71892;14.836;105.234;2023-12-20T09:43:13;99523.00;;;29.25;nan
82293;BME280;71892;14.836;105.234;2023-12-20T09:45:42;99474.00;;;29.20;nan
82293;BME280;71892;14.836;105.234;2023-12-20T09:48:11;99533.78;;;29.14;nan
82293;BME280;71892;14.836;105.234;2023-12-20T09:50:40;99542.69;;;29.03;nan
82293;BME280;71892;14.836;105.234;2023-12-20T09:53:08;99543.09;;;28.97;nan
82293;BME280;71892;14.836;105.234;2023-12-20T09:58:02;99554.13;;;28.81;nan
82293;BME280;71892;14.836;105.234;2023-12-20T10:00:29;99560.78;;;28.77;nan
82293;BME280;71892;14.836;105.234;2023-12-20T10:03:00;99560.44;;;28.68;nan
82293;BME280;71892;14.836;105.234;2023-12-20T10:05:31;99571.69;;;28.63;nan
82293;BME280;71892;14.836;105.234;2023-12-20T10:07:58;99568.63;;;28.53;nan
82293;BME280;71892;14.836;105.234;2023-12-20T10:10:25;99571.13;;;28.42;nan
82293;BME280;71892;14.836;105.234;2023-12-20T10:13:09;99566.44;;;28.30;nan
82293;BME280;71892;14.836;105.234;2023-12-20T10:15:37;99574.59;;;28.16;nan
82293;BME280;71892;14.836;105.234;2023-12-20T10:18:04;99580.75;;;28.04;nan
82293;BME280;71892;14.836;105.234;2023-12-20T10:20:31;99593.03;;;27.97;nan
82293;BME280;71892;14.836;105.234;2023-12-20T10:22:58;99597.22;;;27.88;nan
82293;BME280;71892;14.836;105.234;2023-12-20T10:25:26;99595.19;;;27.76;nan
82293;BME280;71892;14.836;105.234;2023-12-20T10:28:12;99602.06;;;27.67;nan
82293;BME280;71892;14.836;105.234;2023-12-20T10:30:40;99600.28;;;27.51;nan
82293;BME280;71892;14.836;105.234;2023-12-20T10:33:07;99619.97;;;27.40;nan
82293;BME280;71892;14.836;105.234;2023-12-20T10:35:34;99586.00;;;27.30;nan
82293;BME280;71892;14.836;105.234;2023-12-20T10:38:04;99633.00;;;27.19;nan
82293;BME280;71892;14.836;105.234;2023-12-20T10:40:34;99580.22;;;27.03;nan
82293;BME280;71892;14.836;105.234;2023-12-20T10:43:03;99630.66;;;26.96;nan
82293;BME280;71892;14.836;105.234;2023-12-20T10:45:29;99633.00;;;26.87;nan
82293;BME280;71892;14.836;105.234;2023-12-20T10:47:56;99633.63;;;26.74;nan
82293;BME280;71892;14.836;105.234;2023-12-20T10:50:27;99644.56;;;26.57;nan
82293;BME280;71892;14.836;105.234;2023-12-20T10:55:25;99659.22;;;26.37;nan
82293;BME280;71892;14.836;105.234;2023-12-20T10:57:51;99658.72;;;26.29;nan
82293;BME280;71892;14.836;105.234;2023-12-20T11:00:19;99655.72;;;26.17;nan
82293;BME280;71892;14.836;105.234;2023-12-20T11:02:49;99662.13;;;26.16;nan
82293;BME280;71892;14.836;105.234;2023-12-20T11:05:22;99660.69;;;26.09;nan
82293;BME280;71892;14.836;105.234;2023-12-20T11:10:56;99673.28;;;25.92;nan
82293;BME280;71892;14.836;105.234;2023-12-20T11:13:37;99683.75;;;25.83;nan
82293;BME280;71892;14.836;105.234;2023-12-20T11:16:06;99688.31;;;25.82;nan
82293;BME280;71892;14.836;105.234;2023-12-20T11:18:33;99696.72;;;25.78;nan
82293;BME280;71892;14.836;105.234;2023-12-20T11:21:04;99696.06;;;25.73;nan
82293;BME280;71892;14.836;105.234;2023-12-20T11:23:32;99682.72;;;25.67;nan
82293;BME280;71892;14.836;105.234;2023-12-20T11:26:02;99699.22;;;25.64;nan
82293;BME280;71892;14.836;105.234;2023-12-20T11:28:29;99698.91;;;25.51;nan
82293;BME280;71892;14.836;105.234;2023-12-20T11:30:57;99706.00;;;25.55;nan
82293;BME280;71892;14.836;105.234;2023-12-20T11:33:30;99708.34;;;25.42;nan
82293;BME280;71892;14.836;105.234;2023-12-20T11:35:58;99702.25;;;25.37;nan
82293;BME280;71892;14.836;105.234;2023-12-20T11:38:25;99714.41;;;25.30;nan
82293;BME280;71892;14.836;105.234;2023-12-20T11:40:54;99713.19;;;25.17;nan
82293;BME280;71892;14.836;105.234;2023-12-20T11:43:53;99725.34;;;25.08;nan
82293;BME280;71892;14.836;105.234;2023-12-20T11:46:20;99726.81;;;24.97;nan
82293;BME280;71892;14.836;105.234;2023-12-20T11:48:48;99740.81;;;24.88;nan
82293;BME280;71892;14.836;105.234;2023-12-20T11:51:14;99726.38;;;24.86;nan
82293;BME280;71892;14.836;105.234;2023-12-20T11:53:41;99749.41;;;24.77;nan
82293;BME280;71892;14.836;105.234;2023-12-20T11:56:11;99747.91;;;24.70;nan
82293;BME280;71892;14.836;105.234;2023-12-20T11:58:38;99755.09;;;24.71;nan
82293;BME280;71892;14.836;105.234;2023-12-20T12:01:05;99764.75;;;24.58;nan
82293;BME280;71892;14.836;105.234;2023-12-20T12:03:33;99769.50;;;24.53;nan
82293;BME280;71892;14.836;105.234;2023-12-20T12:05:59;99771.72;;;24.43;nan
82293;BME280;71892;14.836;105.234;2023-12-20T12:08:26;99780.16;;;24.36;nan
82293;BME280;71892;14.836;105.234;2023-12-20T12:10:53;99783.97;;;24.32;nan
82293;BME280;71892;14.836;105.234;2023-12-20T12:13:19;99784.84;;;24.32;nan
82293;BME280;71892;14.836;105.234;2023-12-20T12:15:46;99786.88;;;24.27;nan
82293;BME280;71892;14.836;105.234;2023-12-20T12:18:17;99783.47;;;24.22;nan
82293;BME280;71892;14.836;105.234;2023-12-20T12:20:43;99781.81;;;24.18;nan
82293;BME280;71892;14.836;105.234;2023-12-20T12:23:10;99801.22;;;24.07;nan
82293;BME280;71892;14.836;105.234;2023-12-20T12:25:36;99799.34;;;24.09;nan
82293;BME280;71892;14.836;105.234;2023-12-20T12:28:03;99802.63;;;23.96;nan
82293;BME280;71892;14.836;105.234;2023-12-20T12:30:29;99800.09;;;23.91;nan
82293;BME280;71892;14.836;105.234;2023-12-20T12:32:56;99775.16;;;23.80;nan
82293;BME280;71892;14.836;105.234;2023-12-20T12:35:23;99805.75;;;23.85;nan
82293;BME280;71892;14.836;105.234;2023-12-20T12:37:51;99815.06;;;23.78;nan
82293;BME280;71892;14.836;105.234;2023-12-20T12:40:18;99812.28;;;23.79;nan
82293;BME280;71892;14.836;105.234;2023-12-20T12:42:45;99811.00;;;23.66;nan
82293;BME280;71892;14.836;105.234;2023-12-20T12:45:12;99828.22;;;23.65;nan
82293;BME280;71892;14.836;105.234;2023-12-20T12:47:39;99827.50;;;23.60;nan
82293;BME280;71892;14.836;105.234;2023-12-20T12:50:06;99817.88;;;23.52;nan
82293;BME280;71892;14.836;105.234;2023-12-20T12:52:33;99831.28;;;23.56;nan
82293;BME280;71892;14.836;105.234;2023-12-20T12:55:07;99834.47;;;23.43;nan
82293;BME280;71892;14.836;105.234;2023-12-20T12:57:33;99830.25;;;23.34;nan
82293;BME280;71892;14.836;105.234;2023-12-20T13:00:00;99837.44;;;23.35;nan
82293;BME280;71892;14.836;105.234;2023-12-20T13:02:26;99843.03;;;23.30;nan
82293;BME280;71892;14.836;105.234;2023-12-20T13:07:18;99851.31;;;23.27;nan
82293;BME280;71892;14.836;105.234;2023-12-20T13:09:45;99849.69;;;23.22;nan
82293;BME280;71892;14.836;105.234;2023-12-20T13:12:11;99855.38;;;23.14;nan
82293;BME280;71892;14.836;105.234;2023-12-20T13:14:37;99843.66;;;23.14;nan
82293;BME280;71892;14.836;105.234;2023-12-20T13:17:04;99843.97;;;23.05;nan
82293;BME280;71892;14.836;105.234;2023-12-20T13:19:31;99857.69;;;23.00;nan
82293;BME280;71892;14.836;105.234;2023-12-20T13:21:58;99856.00;;;22.96;nan